sensor_id;sensor_type;location;lat;lon;timestamp;P1;P2;P0
64627;PMS5003;59036;50.960;0.314;2022-07-23T00:02:09;7;7;
64627;PMS5003;59036;50.960;0.314;2022-07-23T00:04:36;6;6;
64627;PMS5003;59036;50.960;0.314;2022-07-23T00:07:03;5;4;
64627;PMS5003;59036;50.960;0.314;2022-07-23T00:09:30;6;6;
64627;PMS5003;59036;50.960;0.314;2022-07-23T00:11:58;5;5;
64627;PMS5003;59036;50.960;0.314;2022-07-23T00:14:25;7;6;
64627;PMS5003;59036;50.960;0.314;2022-07-23T00:16:52;6;6;
64627;PMS5003;59036;50.960;0.314;2022-07-23T00:19:19;7;6;
64627;PMS5003;59036;50.960;0.314;2022-07-23T00:21:46;6;4;
64627;PMS5003;59036;50.960;0.314;2022-07-23T00:24:13;7;7;
64627;PMS5003;59036;50.960;0.314;2022-07-23T00:26:40;8;7;
64627;PMS5003;59036;50.960;0.314;2022-07-23T00:29:07;6;5;
64627;PMS5003;59036;50.960;0.314;2022-07-23T00:31:34;5;5;
64627;PMS5003;59036;50.960;0.314;2022-07-23T00:34:01;6;5;
64627;PMS5003;59036;50.960;0.314;2022-07-23T00:36:28;5;5;
64627;PMS5003;59036;50.960;0.314;2022-07-23T00:38:55;5;5;
64627;PMS5003;59036;50.960;0.314;2022-07-23T00:41:22;7;7;
64627;PMS5003;59036;50.960;0.314;2022-07-23T00:43:50;7;5;
64627;PMS5003;59036;50.960;0.314;2022-07-23T00:46:18;4;4;
64627;PMS5003;59036;50.960;0.314;2022-07-23T00:48:46;4;4;
64627;PMS5003;59036;50.960;0.314;2022-07-23T00:51:14;6;6;
64627;PMS5003;59036;50.960;0.314;2022-07-23T00:53:42;10;8;
64627;PMS5003;59036;50.960;0.314;2022-07-23T00:56:11;7;6;
64627;PMS5003;59036;50.960;0.314;2022-07-23T00:58:38;7;7;
64627;PMS5003;59036;50.960;0.314;2022-07-23T01:01:08;6;6;
64627;PMS5003;59036;50.960;0.314;2022-07-23T01:03:36;6;6;
64627;PMS5003;59036;50.960;0.314;2022-07-23T01:06:03;7;7;
64627;PMS5003;59036;50.960;0.314;2022-07-23T01:08:29;7;7;
64627;PMS5003;59036;50.960;0.314;2022-07-23T01:10:56;6;6;
64627;PMS5003;59036;50.960;0.314;2022-07-23T01:13:23;6;6;
64627;PMS5003;59036;50.960;0.314;2022-07-23T01:15:50;4;4;
64627;PMS5003;59036;50.960;0.314;2022-07-23T01:18:17;6;6;
64627;PMS5003;59036;50.960;0.314;2022-07-23T01:20:44;7;6;
64627;PMS5003;59036;50.960;0.314;2022-07-23T01:23:11;7;7;
64627;PMS5003;59036;50.960;0.314;2022-07-23T01:25:40;6;5;
64627;PMS5003;59036;50.960;0.314;2022-07-23T01:28:14;5;5;
64627;PMS5003;59036;50.960;0.314;2022-07-23T01:30:41;7;7;
64627;PMS5003;59036;50.960;0.314;2022-07-23T01:33:08;8;8;
64627;PMS5003;59036;50.960;0.314;2022-07-23T01:35:36;5;5;
64627;PMS5003;59036;50.960;0.314;2022-07-23T01:38:03;8;7;
64627;PMS5003;59036;50.960;0.314;2022-07-23T01:40:30;6;5;
64627;PMS5003;59036;50.960;0.314;2022-07-23T01:42:57;6;6;
64627;PMS5003;59036;50.960;0.314;2022-07-23T01:45:24;5;5;
64627;PMS5003;59036;50.960;0.314;2022-07-23T01:47:50;9;8;
64627;PMS5003;59036;50.960;0.314;2022-07-23T01:50:17;6;6;
64627;PMS5003;59036;50.960;0.314;2022-07-23T01:52:44;6;5;
64627;PMS5003;59036;50.960;0.314;2022-07-23T01:55:11;5;5;
64627;PMS5003;59036;50.960;0.314;2022-07-23T01:57:38;4;4;
64627;PMS5003;59036;50.960;0.314;2022-07-23T02:00:06;7;6;
64627;PMS5003;59036;50.960;0.314;2022-07-23T02:02:34;7;7;
64627;PMS5003;59036;50.960;0.314;2022-07-23T02:05:01;5;5;
64627;PMS5003;59036;50.960;0.314;2022-07-23T02:07:28;7;5;
64627;PMS5003;59036;50.960;0.314;2022-07-23T02:09:55;6;6;
64627;PMS5003;59036;50.960;0.314;2022-07-23T02:12:22;6;5;
64627;PMS5003;59036;50.960;0.314;2022-07-23T02:14:49;5;5;
64627;PMS5003;59036;50.960;0.314;2022-07-23T02:17:16;4;4;
64627;PMS5003;59036;50.960;0.314;2022-07-23T02:19:43;5;5;
64627;PMS5003;59036;50.960;0.314;2022-07-23T02:22:10;5;5;
64627;PMS5003;59036;50.960;0.314;2022-07-23T02:24:37;6;6;
64627;PMS5003;59036;50.960;0.314;2022-07-23T02:27:04;6;6;
64627;PMS5003;59036;50.960;0.314;2022-07-23T02:29:30;4;4;
64627;PMS5003;59036;50.960;0.314;2022-07-23T02:31:57;5;5;
64627;PMS5003;59036;50.960;0.314;2022-07-23T02:34:24;7;7;
64627;PMS5003;59036;50.960;0.314;2022-07-23T02:36:51;5;5;
64627;PMS5003;59036;50.960;0.314;2022-07-23T02:39:18;5;5;
64627;PMS5003;59036;50.960;0.314;2022-07-23T02:41:45;5;5;
64627;PMS5003;59036;50.960;0.314;2022-07-23T02:44:12;4;4;
64627;PMS5003;59036;50.960;0.314;2022-07-23T02:46:39;7;7;
64627;PMS5003;59036;50.960;0.314;2022-07-23T02:49:06;6;6;
64627;PMS5003;59036;50.960;0.314;2022-07-23T02:51:33;5;5;
64627;PMS5003;59036;50.960;0.314;2022-07-23T02:54:00;6;5;
64627;PMS5003;59036;50.960;0.314;2022-07-23T02:56:27;8;6;
64627;PMS5003;59036;50.960;0.314;2022-07-23T02:58:53;5;4;
64627;PMS5003;59036;50.960;0.314;2022-07-23T03:01:20;5;5;
64627;PMS5003;59036;50.960;0.314;2022-07-23T03:03:47;5;5;
64627;PMS5003;59036;50.960;0.314;2022-07-23T03:06:14;6;6;
64627;PMS5003;59036;50.960;0.314;2022-07-23T03:08:41;6;6;
64627;PMS5003;59036;50.960;0.314;2022-07-23T03:11:08;8;8;
64627;PMS5003;59036;50.960;0.314;2022-07-23T03:13:36;7;6;
64627;PMS5003;59036;50.960;0.314;2022-07-23T03:16:03;7;7;
64627;PMS5003;59036;50.960;0.314;2022-07-23T03:18:31;4;4;
64627;PMS5003;59036;50.960;0.314;2022-07-23T03:20:59;6;6;
64627;PMS5003;59036;50.960;0.314;2022-07-23T03:23:26;6;6;
64627;PMS5003;59036;50.960;0.314;2022-07-23T03:25:53;6;6;
64627;PMS5003;59036;50.960;0.314;2022-07-23T03:28:20;6;6;
64627;PMS5003;59036;50.960;0.314;2022-07-23T03:30:47;5;5;
64627;PMS5003;59036;50.960;0.314;2022-07-23T03:33:14;7;6;
64627;PMS5003;59036;50.960;0.314;2022-07-23T03:35:43;5;5;
64627;PMS5003;59036;50.960;0.314;2022-07-23T03:38:11;5;5;
64627;PMS5003;59036;50.960;0.314;2022-07-23T03:40:38;6;6;
64627;PMS5003;59036;50.960;0.314;2022-07-23T03:43:05;7;7;
64627;PMS5003;59036;50.960;0.314;2022-07-23T03:45:33;8;8;
64627;PMS5003;59036;50.960;0.314;2022-07-23T03:48:00;7;7;
64627;PMS5003;59036;50.960;0.314;2022-07-23T03:50:27;8;7;
64627;PMS5003;59036;50.960;0.314;2022-07-23T03:52:54;7;7;
64627;PMS5003;59036;50.960;0.314;2022-07-23T03:55:21;10;9;
64627;PMS5003;59036;50.960;0.314;2022-07-23T03:57:48;11;10;
64627;PMS5003;59036;50.960;0.314;2022-07-23T04:00:16;11;11;
64627;PMS5003;59036;50.960;0.314;2022-07-23T04:02:43;10;10;
64627;PMS5003;59036;50.960;0.314;2022-07-23T04:05:10;12;11;
64627;PMS5003;59036;50.960;0.314;2022-07-23T04:07:37;9;9;
64627;PMS5003;59036;50.960;0.314;2022-07-23T04:10:05;11;10;
64627;PMS5003;59036;50.960;0.314;2022-07-23T04:12:33;9;9;
64627;PMS5003;59036;50.960;0.314;2022-07-23T04:15:00;9;9;
64627;PMS5003;59036;50.960;0.314;2022-07-23T04:17:27;10;10;
64627;PMS5003;59036;50.960;0.314;2022-07-23T04:19:54;11;11;
64627;PMS5003;59036;50.960;0.314;2022-07-23T04:22:21;11;11;
64627;PMS5003;59036;50.960;0.314;2022-07-23T04:24:48;11;11;
64627;PMS5003;59036;50.960;0.314;2022-07-23T04:27:14;9;9;
64627;PMS5003;59036;50.960;0.314;2022-07-23T04:29:42;9;9;
64627;PMS5003;59036;50.960;0.314;2022-07-23T04:32:09;8;8;
64627;PMS5003;59036;50.960;0.314;2022-07-23T04:34:36;9;9;
64627;PMS5003;59036;50.960;0.314;2022-07-23T04:37:03;11;11;
64627;PMS5003;59036;50.960;0.314;2022-07-23T04:39:30;12;12;
64627;PMS5003;59036;50.960;0.314;2022-07-23T04:41:57;13;12;
64627;PMS5003;59036;50.960;0.314;2022-07-23T04:44:24;11;11;
64627;PMS5003;59036;50.960;0.314;2022-07-23T04:46:51;12;12;
64627;PMS5003;59036;50.960;0.314;2022-07-23T04:49:19;14;14;
64627;PMS5003;59036;50.960;0.314;2022-07-23T04:51:46;14;13;
64627;PMS5003;59036;50.960;0.314;2022-07-23T04:54:13;15;15;
64627;PMS5003;59036;50.960;0.314;2022-07-23T04:56:40;14;14;
64627;PMS5003;59036;50.960;0.314;2022-07-23T04:59:07;12;12;
64627;PMS5003;59036;50.960;0.314;2022-07-23T05:01:35;15;14;
64627;PMS5003;59036;50.960;0.314;2022-07-23T05:04:02;13;12;
64627;PMS5003;59036;50.960;0.314;2022-07-23T05:06:29;13;11;
64627;PMS5003;59036;50.960;0.314;2022-07-23T05:08:55;11;11;
64627;PMS5003;59036;50.960;0.314;2022-07-23T05:11:22;11;11;
64627;PMS5003;59036;50.960;0.314;2022-07-23T05:13:49;10;9;
64627;PMS5003;59036;50.960;0.314;2022-07-23T05:16:16;11;11;
64627;PMS5003;59036;50.960;0.314;2022-07-23T05:18:43;12;12;
64627;PMS5003;59036;50.960;0.314;2022-07-23T05:21:10;11;11;
64627;PMS5003;59036;50.960;0.314;2022-07-23T05:23:37;12;12;
64627;PMS5003;59036;50.960;0.314;2022-07-23T05:26:04;14;13;
64627;PMS5003;59036;50.960;0.314;2022-07-23T05:28:31;10;10;
64627;PMS5003;59036;50.960;0.314;2022-07-23T05:30:58;10;10;
64627;PMS5003;59036;50.960;0.314;2022-07-23T05:33:25;13;12;
64627;PMS5003;59036;50.960;0.314;2022-07-23T05:35:52;10;10;
64627;PMS5003;59036;50.960;0.314;2022-07-23T05:38:19;10;10;
64627;PMS5003;59036;50.960;0.314;2022-07-23T05:40:46;10;10;
64627;PMS5003;59036;50.960;0.314;2022-07-23T05:43:13;9;9;
64627;PMS5003;59036;50.960;0.314;2022-07-23T05:45:40;9;9;
64627;PMS5003;59036;50.960;0.314;2022-07-23T05:48:08;12;11;
64627;PMS5003;59036;50.960;0.314;2022-07-23T05:50:35;14;13;
64627;PMS5003;59036;50.960;0.314;2022-07-23T05:53:03;12;11;
64627;PMS5003;59036;50.960;0.314;2022-07-23T05:55:30;11;11;
64627;PMS5003;59036;50.960;0.314;2022-07-23T05:57:57;12;12;
64627;PMS5003;59036;50.960;0.314;2022-07-23T06:00:25;12;12;
64627;PMS5003;59036;50.960;0.314;2022-07-23T06:02:53;10;10;
64627;PMS5003;59036;50.960;0.314;2022-07-23T06:05:20;11;11;
64627;PMS5003;59036;50.960;0.314;2022-07-23T06:07:47;13;12;
64627;PMS5003;59036;50.960;0.314;2022-07-23T06:10:15;12;12;
64627;PMS5003;59036;50.960;0.314;2022-07-23T06:12:42;11;11;
64627;PMS5003;59036;50.960;0.314;2022-07-23T06:15:09;13;13;
64627;PMS5003;59036;50.960;0.314;2022-07-23T06:17:37;13;13;
64627;PMS5003;59036;50.960;0.314;2022-07-23T06:20:04;12;10;
64627;PMS5003;59036;50.960;0.314;2022-07-23T06:22:33;12;12;
64627;PMS5003;59036;50.960;0.314;2022-07-23T06:25:01;13;13;
64627;PMS5003;59036;50.960;0.314;2022-07-23T06:27:28;11;11;
64627;PMS5003;59036;50.960;0.314;2022-07-23T06:29:55;13;13;
64627;PMS5003;59036;50.960;0.314;2022-07-23T06:32:22;10;10;
64627;PMS5003;59036;50.960;0.314;2022-07-23T06:34:49;14;13;
64627;PMS5003;59036;50.960;0.314;2022-07-23T06:37:16;9;9;
64627;PMS5003;59036;50.960;0.314;2022-07-23T06:39:43;12;12;
64627;PMS5003;59036;50.960;0.314;2022-07-23T06:42:10;12;11;
64627;PMS5003;59036;50.960;0.314;2022-07-23T06:44:36;11;11;
64627;PMS5003;59036;50.960;0.314;2022-07-23T06:47:03;13;13;
64627;PMS5003;59036;50.960;0.314;2022-07-23T06:49:30;13;12;
64627;PMS5003;59036;50.960;0.314;2022-07-23T06:51:58;14;14;
64627;PMS5003;59036;50.960;0.314;2022-07-23T06:54:24;14;13;
64627;PMS5003;59036;50.960;0.314;2022-07-23T06:56:51;15;14;
64627;PMS5003;59036;50.960;0.314;2022-07-23T06:59:18;13;12;
64627;PMS5003;59036;50.960;0.314;2022-07-23T07:01:46;12;12;
64627;PMS5003;59036;50.960;0.314;2022-07-23T07:04:13;11;10;
64627;PMS5003;59036;50.960;0.314;2022-07-23T07:06:40;11;9;
64627;PMS5003;59036;50.960;0.314;2022-07-23T07:09:07;10;10;
64627;PMS5003;59036;50.960;0.314;2022-07-23T07:11:34;10;10;
64627;PMS5003;59036;50.960;0.314;2022-07-23T07:14:01;10;10;
64627;PMS5003;59036;50.960;0.314;2022-07-23T07:16:28;11;11;
64627;PMS5003;59036;50.960;0.314;2022-07-23T07:18:55;10;10;
64627;PMS5003;59036;50.960;0.314;2022-07-23T07:21:22;12;11;
64627;PMS5003;59036;50.960;0.314;2022-07-23T07:23:49;11;8;
64627;PMS5003;59036;50.960;0.314;2022-07-23T07:26:16;9;9;
64627;PMS5003;59036;50.960;0.314;2022-07-23T07:28:43;11;11;
64627;PMS5003;59036;50.960;0.314;2022-07-23T07:31:10;12;11;
64627;PMS5003;59036;50.960;0.314;2022-07-23T07:33:37;13;12;
64627;PMS5003;59036;50.960;0.314;2022-07-23T07:36:04;9;9;
64627;PMS5003;59036;50.960;0.314;2022-07-23T07:38:31;11;10;
64627;PMS5003;59036;50.960;0.314;2022-07-23T07:40:58;12;12;
64627;PMS5003;59036;50.960;0.314;2022-07-23T07:43:25;9;9;
64627;PMS5003;59036;50.960;0.314;2022-07-23T07:45:52;12;12;
64627;PMS5003;59036;50.960;0.314;2022-07-23T07:48:19;11;10;
64627;PMS5003;59036;50.960;0.314;2022-07-23T07:50:46;12;10;
64627;PMS5003;59036;50.960;0.314;2022-07-23T07:53:13;9;9;
64627;PMS5003;59036;50.960;0.314;2022-07-23T07:55:40;10;9;
64627;PMS5003;59036;50.960;0.314;2022-07-23T07:58:07;10;9;
64627;PMS5003;59036;50.960;0.314;2022-07-23T08:00:34;9;8;
64627;PMS5003;59036;50.960;0.314;2022-07-23T08:03:01;7;7;
64627;PMS5003;59036;50.960;0.314;2022-07-23T08:05:28;7;7;
64627;PMS5003;59036;50.960;0.314;2022-07-23T08:07:56;8;7;
64627;PMS5003;59036;50.960;0.314;2022-07-23T08:10:25;7;7;
64627;PMS5003;59036;50.960;0.314;2022-07-23T08:12:54;7;7;
64627;PMS5003;59036;50.960;0.314;2022-07-23T08:15:22;9;9;
64627;PMS5003;59036;50.960;0.314;2022-07-23T08:17:50;10;10;
64627;PMS5003;59036;50.960;0.314;2022-07-23T08:20:18;9;7;
64627;PMS5003;59036;50.960;0.314;2022-07-23T08:22:46;11;9;
64627;PMS5003;59036;50.960;0.314;2022-07-23T08:25:15;9;8;
64627;PMS5003;59036;50.960;0.314;2022-07-23T08:27:46;7;7;
64627;PMS5003;59036;50.960;0.314;2022-07-23T08:30:13;9;8;
64627;PMS5003;59036;50.960;0.314;2022-07-23T08:32:49;9;9;
64627;PMS5003;59036;50.960;0.314;2022-07-23T08:35:18;9;9;
64627;PMS5003;59036;50.960;0.314;2022-07-23T08:37:49;8;7;
64627;PMS5003;59036;50.960;0.314;2022-07-23T08:40:17;9;9;
64627;PMS5003;59036;50.960;0.314;2022-07-23T08:42:45;8;8;
64627;PMS5003;59036;50.960;0.314;2022-07-23T08:45:15;8;8;
64627;PMS5003;59036;50.960;0.314;2022-07-23T08:47:43;9;9;
64627;PMS5003;59036;50.960;0.314;2022-07-23T08:50:11;9;8;
64627;PMS5003;59036;50.960;0.314;2022-07-23T08:52:38;10;10;
64627;PMS5003;59036;50.960;0.314;2022-07-23T08:55:07;9;9;
64627;PMS5003;59036;50.960;0.314;2022-07-23T08:57:35;9;9;
64627;PMS5003;59036;50.960;0.314;2022-07-23T09:00:03;9;8;
64627;PMS5003;59036;50.960;0.314;2022-07-23T09:02:31;8;8;
64627;PMS5003;59036;50.960;0.314;2022-07-23T09:05:06;10;8;
64627;PMS5003;59036;50.960;0.314;2022-07-23T09:07:34;11;10;
64627;PMS5003;59036;50.960;0.314;2022-07-23T09:10:05;8;8;
64627;PMS5003;59036;50.960;0.314;2022-07-23T09:12:34;10;10;
64627;PMS5003;59036;50.960;0.314;2022-07-23T09:15:04;10;9;
64627;PMS5003;59036;50.960;0.314;2022-07-23T09:17:40;9;9;
64627;PMS5003;59036;50.960;0.314;2022-07-23T09:20:10;11;11;
64627;PMS5003;59036;50.960;0.314;2022-07-23T09:22:38;9;8;
64627;PMS5003;59036;50.960;0.314;2022-07-23T09:25:11;10;10;
64627;PMS5003;59036;50.960;0.314;2022-07-23T09:27:49;10;10;
64627;PMS5003;59036;50.960;0.314;2022-07-23T09:30:18;11;11;
64627;PMS5003;59036;50.960;0.314;2022-07-23T09:33:19;10;10;
64627;PMS5003;59036;50.960;0.314;2022-07-23T09:35:48;9;9;
64627;PMS5003;59036;50.960;0.314;2022-07-23T09:38:17;12;12;
64627;PMS5003;59036;50.960;0.314;2022-07-23T09:40:46;10;10;
64627;PMS5003;59036;50.960;0.314;2022-07-23T09:43:14;6;6;
64627;PMS5003;59036;50.960;0.314;2022-07-23T09:45:53;11;9;
64627;PMS5003;59036;50.960;0.314;2022-07-23T09:48:43;9;9;
64627;PMS5003;59036;50.960;0.314;2022-07-23T09:51:10;11;10;
64627;PMS5003;59036;50.960;0.314;2022-07-23T09:53:36;13;12;
64627;PMS5003;59036;50.960;0.314;2022-07-23T09:56:04;13;13;
64627;PMS5003;59036;50.960;0.314;2022-07-23T09:58:33;12;12;
64627;PMS5003;59036;50.960;0.314;2022-07-23T10:01:03;12;12;
64627;PMS5003;59036;50.960;0.314;2022-07-23T10:03:31;10;10;
64627;PMS5003;59036;50.960;0.314;2022-07-23T10:05:58;13;11;
64627;PMS5003;59036;50.960;0.314;2022-07-23T10:08:25;11;11;
64627;PMS5003;59036;50.960;0.314;2022-07-23T10:10:53;11;11;
64627;PMS5003;59036;50.960;0.314;2022-07-23T10:13:21;10;10;
64627;PMS5003;59036;50.960;0.314;2022-07-23T10:15:48;11;11;
64627;PMS5003;59036;50.960;0.314;2022-07-23T10:18:17;10;10;
64627;PMS5003;59036;50.960;0.314;2022-07-23T10:20:44;13;13;
64627;PMS5003;59036;50.960;0.314;2022-07-23T10:23:15;12;11;
64627;PMS5003;59036;50.960;0.314;2022-07-23T10:25:51;12;12;
64627;PMS5003;59036;50.960;0.314;2022-07-23T10:28:30;12;11;
64627;PMS5003;59036;50.960;0.314;2022-07-23T10:31:10;10;10;
64627;PMS5003;59036;50.960;0.314;2022-07-23T10:33:50;10;9;
64627;PMS5003;59036;50.960;0.314;2022-07-23T10:36:29;11;11;
64627;PMS5003;59036;50.960;0.314;2022-07-23T10:39:04;10;10;
64627;PMS5003;59036;50.960;0.314;2022-07-23T10:41:36;12;10;
64627;PMS5003;59036;50.960;0.314;2022-07-23T10:44:06;10;10;
64627;PMS5003;59036;50.960;0.314;2022-07-23T10:46:36;12;11;
64627;PMS5003;59036;50.960;0.314;2022-07-23T10:49:22;11;11;
64627;PMS5003;59036;50.960;0.314;2022-07-23T10:52:24;10;9;
64627;PMS5003;59036;50.960;0.314;2022-07-23T10:54:54;8;8;
64627;PMS5003;59036;50.960;0.314;2022-07-23T10:57:23;9;9;
64627;PMS5003;59036;50.960;0.314;2022-07-23T11:00:23;9;8;
64627;PMS5003;59036;50.960;0.314;2022-07-23T11:02:52;10;10;
64627;PMS5003;59036;50.960;0.314;2022-07-23T11:05:21;10;9;
64627;PMS5003;59036;50.960;0.314;2022-07-23T11:08:21;9;9;
64627;PMS5003;59036;50.960;0.314;2022-07-23T11:10:50;9;9;
64627;PMS5003;59036;50.960;0.314;2022-07-23T11:13:27;8;8;
64627;PMS5003;59036;50.960;0.314;2022-07-23T11:16:05;7;7;
64627;PMS5003;59036;50.960;0.314;2022-07-23T11:19:06;9;9;
64627;PMS5003;59036;50.960;0.314;2022-07-23T11:21:50;8;8;
64627;PMS5003;59036;50.960;0.314;2022-07-23T11:24:19;9;9;
64627;PMS5003;59036;50.960;0.314;2022-07-23T11:26:50;8;8;
64627;PMS5003;59036;50.960;0.314;2022-07-23T11:29:53;8;7;
64627;PMS5003;59036;50.960;0.314;2022-07-23T11:32:29;9;9;
64627;PMS5003;59036;50.960;0.314;2022-07-23T11:34:58;7;7;
64627;PMS5003;59036;50.960;0.314;2022-07-23T11:37:28;6;6;
64627;PMS5003;59036;50.960;0.314;2022-07-23T11:40:00;7;7;
64627;PMS5003;59036;50.960;0.314;2022-07-23T11:42:29;10;10;
64627;PMS5003;59036;50.960;0.314;2022-07-23T11:44:56;7;7;
64627;PMS5003;59036;50.960;0.314;2022-07-23T11:47:24;7;7;
64627;PMS5003;59036;50.960;0.314;2022-07-23T11:49:52;6;6;
64627;PMS5003;59036;50.960;0.314;2022-07-23T11:52:21;6;6;
64627;PMS5003;59036;50.960;0.314;2022-07-23T11:54:50;8;8;
64627;PMS5003;59036;50.960;0.314;2022-07-23T11:57:18;8;8;
64627;PMS5003;59036;50.960;0.314;2022-07-23T11:59:47;8;8;
64627;PMS5003;59036;50.960;0.314;2022-07-23T12:02:19;7;7;
64627;PMS5003;59036;50.960;0.314;2022-07-23T12:04:48;6;6;
64627;PMS5003;59036;50.960;0.314;2022-07-23T12:07:24;9;9;
64627;PMS5003;59036;50.960;0.314;2022-07-23T12:09:55;5;5;
64627;PMS5003;59036;50.960;0.314;2022-07-23T12:12:25;6;6;
64627;PMS5003;59036;50.960;0.314;2022-07-23T12:14:53;7;7;
64627;PMS5003;59036;50.960;0.314;2022-07-23T12:17:27;7;7;
64627;PMS5003;59036;50.960;0.314;2022-07-23T12:19:55;6;5;
64627;PMS5003;59036;50.960;0.314;2022-07-23T12:22:24;5;5;
64627;PMS5003;59036;50.960;0.314;2022-07-23T12:25:00;6;6;
64627;PMS5003;59036;50.960;0.314;2022-07-23T12:27:29;7;6;
64627;PMS5003;59036;50.960;0.314;2022-07-23T12:29:57;6;6;
64627;PMS5003;59036;50.960;0.314;2022-07-23T12:32:24;7;7;
64627;PMS5003;59036;50.960;0.314;2022-07-23T12:35:02;7;6;
64627;PMS5003;59036;50.960;0.314;2022-07-23T12:37:31;6;6;
64627;PMS5003;59036;50.960;0.314;2022-07-23T12:40:33;7;7;
64627;PMS5003;59036;50.960;0.314;2022-07-23T12:43:03;9;9;
64627;PMS5003;59036;50.960;0.314;2022-07-23T12:45:47;7;7;
64627;PMS5003;59036;50.960;0.314;2022-07-23T12:48:18;7;6;
64627;PMS5003;59036;50.960;0.314;2022-07-23T12:50:55;6;6;
64627;PMS5003;59036;50.960;0.314;2022-07-23T12:53:25;6;6;
64627;PMS5003;59036;50.960;0.314;2022-07-23T12:56:00;6;6;
64627;PMS5003;59036;50.960;0.314;2022-07-23T12:58:39;5;4;
64627;PMS5003;59036;50.960;0.314;2022-07-23T13:01:10;6;6;
64627;PMS5003;59036;50.960;0.314;2022-07-23T13:03:55;7;6;
64627;PMS5003;59036;50.960;0.314;2022-07-23T13:06:25;6;6;
64627;PMS5003;59036;50.960;0.314;2022-07-23T13:08:54;5;5;
64627;PMS5003;59036;50.960;0.314;2022-07-23T13:11:20;6;6;
64627;PMS5003;59036;50.960;0.314;2022-07-23T13:13:47;5;4;
64627;PMS5003;59036;50.960;0.314;2022-07-23T13:16:14;4;4;
64627;PMS5003;59036;50.960;0.314;2022-07-23T13:18:42;4;4;
64627;PMS5003;59036;50.960;0.314;2022-07-23T13:21:09;5;5;
64627;PMS5003;59036;50.960;0.314;2022-07-23T13:23:37;5;4;
64627;PMS5003;59036;50.960;0.314;2022-07-23T13:26:04;4;4;
64627;PMS5003;59036;50.960;0.314;2022-07-23T13:28:31;5;5;
64627;PMS5003;59036;50.960;0.314;2022-07-23T13:30:58;4;4;
64627;PMS5003;59036;50.960;0.314;2022-07-23T13:33:25;5;5;
64627;PMS5003;59036;50.960;0.314;2022-07-23T13:35:53;4;4;
64627;PMS5003;59036;50.960;0.314;2022-07-23T13:38:20;4;4;
64627;PMS5003;59036;50.960;0.314;2022-07-23T13:40:49;5;4;
64627;PMS5003;59036;50.960;0.314;2022-07-23T13:43:18;4;4;
64627;PMS5003;59036;50.960;0.314;2022-07-23T13:45:47;5;5;
64627;PMS5003;59036;50.960;0.314;2022-07-23T13:48:15;3;3;
64627;PMS5003;59036;50.960;0.314;2022-07-23T13:50:42;6;4;
64627;PMS5003;59036;50.960;0.314;2022-07-23T13:53:13;4;4;
64627;PMS5003;59036;50.960;0.314;2022-07-23T13:55:42;5;4;
64627;PMS5003;59036;50.960;0.314;2022-07-23T13:58:10;6;6;
64627;PMS5003;59036;50.960;0.314;2022-07-23T14:00:38;5;5;
64627;PMS5003;59036;50.960;0.314;2022-07-23T14:03:09;3;3;
64627;PMS5003;59036;50.960;0.314;2022-07-23T14:05:36;7;6;
64627;PMS5003;59036;50.960;0.314;2022-07-23T14:08:04;4;4;
64627;PMS5003;59036;50.960;0.314;2022-07-23T14:10:31;3;3;
64627;PMS5003;59036;50.960;0.314;2022-07-23T14:12:58;3;3;
64627;PMS5003;59036;50.960;0.314;2022-07-23T14:15:25;5;5;
64627;PMS5003;59036;50.960;0.314;2022-07-23T14:17:54;5;5;
64627;PMS5003;59036;50.960;0.314;2022-07-23T14:20:22;4;4;
64627;PMS5003;59036;50.960;0.314;2022-07-23T14:22:49;4;4;
64627;PMS5003;59036;50.960;0.314;2022-07-23T14:25:16;4;4;
64627;PMS5003;59036;50.960;0.314;2022-07-23T14:27:44;5;5;
64627;PMS5003;59036;50.960;0.314;2022-07-23T14:30:11;5;4;
64627;PMS5003;59036;50.960;0.314;2022-07-23T14:32:39;4;4;
64627;PMS5003;59036;50.960;0.314;2022-07-23T14:35:06;6;5;
64627;PMS5003;59036;50.960;0.314;2022-07-23T14:37:34;6;6;
64627;PMS5003;59036;50.960;0.314;2022-07-23T14:40:01;4;3;
64627;PMS5003;59036;50.960;0.314;2022-07-23T14:42:28;4;4;
64627;PMS5003;59036;50.960;0.314;2022-07-23T14:44:55;4;4;
64627;PMS5003;59036;50.960;0.314;2022-07-23T14:47:22;4;4;
64627;PMS5003;59036;50.960;0.314;2022-07-23T14:49:49;3;3;
64627;PMS5003;59036;50.960;0.314;2022-07-23T14:52:16;4;3;
64627;PMS5003;59036;50.960;0.314;2022-07-23T14:54:43;3;3;
64627;PMS5003;59036;50.960;0.314;2022-07-23T14:57:09;4;4;
64627;PMS5003;59036;50.960;0.314;2022-07-23T14:59:36;4;3;
64627;PMS5003;59036;50.960;0.314;2022-07-23T15:02:03;4;4;
64627;PMS5003;59036;50.960;0.314;2022-07-23T15:04:30;5;4;
64627;PMS5003;59036;50.960;0.314;2022-07-23T15:06:57;2;2;
64627;PMS5003;59036;50.960;0.314;2022-07-23T15:09:24;1;1;
64627;PMS5003;59036;50.960;0.314;2022-07-23T15:11:51;2;2;
64627;PMS5003;59036;50.960;0.314;2022-07-23T15:14:17;3;3;
64627;PMS5003;59036;50.960;0.314;2022-07-23T15:16:44;2;2;
64627;PMS5003;59036;50.960;0.314;2022-07-23T15:19:11;1;1;
64627;PMS5003;59036;50.960;0.314;2022-07-23T15:21:38;3;3;
64627;PMS5003;59036;50.960;0.314;2022-07-23T15:24:05;2;2;
64627;PMS5003;59036;50.960;0.314;2022-07-23T15:26:33;2;2;
64627;PMS5003;59036;50.960;0.314;2022-07-23T15:29:00;3;3;
64627;PMS5003;59036;50.960;0.314;2022-07-23T15:31:26;3;3;
64627;PMS5003;59036;50.960;0.314;2022-07-23T15:33:53;1;1;
64627;PMS5003;59036;50.960;0.314;2022-07-23T15:36:21;3;3;
64627;PMS5003;59036;50.960;0.314;2022-07-23T15:38:48;3;3;
64627;PMS5003;59036;50.960;0.314;2022-07-23T15:41:16;2;2;
64627;PMS5003;59036;50.960;0.314;2022-07-23T15:43:42;2;2;
64627;PMS5003;59036;50.960;0.314;2022-07-23T15:46:09;4;3;
64627;PMS5003;59036;50.960;0.314;2022-07-23T15:48:37;3;3;
64627;PMS5003;59036;50.960;0.314;2022-07-23T15:51:04;2;2;
64627;PMS5003;59036;50.960;0.314;2022-07-23T15:53:32;2;2;
64627;PMS5003;59036;50.960;0.314;2022-07-23T15:55:59;3;3;
64627;PMS5003;59036;50.960;0.314;2022-07-23T15:58:27;3;3;
64627;PMS5003;59036;50.960;0.314;2022-07-23T16:00:55;2;2;
64627;PMS5003;59036;50.960;0.314;2022-07-23T16:03:22;2;2;
64627;PMS5003;59036;50.960;0.314;2022-07-23T16:05:49;3;3;
64627;PMS5003;59036;50.960;0.314;2022-07-23T16:08:17;2;2;
64627;PMS5003;59036;50.960;0.314;2022-07-23T16:10:44;3;3;
64627;PMS5003;59036;50.960;0.314;2022-07-23T16:13:11;2;2;
64627;PMS5003;59036;50.960;0.314;2022-07-23T16:15:39;2;2;
64627;PMS5003;59036;50.960;0.314;2022-07-23T16:18:06;2;2;
64627;PMS5003;59036;50.960;0.314;2022-07-23T16:20:34;3;3;
64627;PMS5003;59036;50.960;0.314;2022-07-23T16:23:01;2;2;
64627;PMS5003;59036;50.960;0.314;2022-07-23T16:25:28;2;2;
64627;PMS5003;59036;50.960;0.314;2022-07-23T16:27:55;3;3;
64627;PMS5003;59036;50.960;0.314;2022-07-23T16:30:22;3;3;
64627;PMS5003;59036;50.960;0.314;2022-07-23T16:32:49;1;1;
64627;PMS5003;59036;50.960;0.314;2022-07-23T16:35:16;2;2;
64627;PMS5003;59036;50.960;0.314;2022-07-23T16:37:43;2;2;
64627;PMS5003;59036;50.960;0.314;2022-07-23T16:40:11;2;2;
64627;PMS5003;59036;50.960;0.314;2022-07-23T16:42:38;4;4;
64627;PMS5003;59036;50.960;0.314;2022-07-23T16:45:06;2;2;
64627;PMS5003;59036;50.960;0.314;2022-07-23T16:47:34;3;3;
64627;PMS5003;59036;50.960;0.314;2022-07-23T16:50:01;3;3;
64627;PMS5003;59036;50.960;0.314;2022-07-23T16:52:30;2;2;